createdAt,value
2022-12-25T00:01:33.365Z,7.37
2022-12-25T00:04:36.161Z,7.39
2022-12-25T00:07:39.101Z,7.41
2022-12-25T00:10:45.218Z,7.43
2022-12-25T00:13:48.999Z,7.44
2022-12-25T00:16:51.720Z,7.46
2022-12-25T00:19:54.405Z,7.48
2022-12-25T00:22:57.505Z,7.51
2022-12-25T00:26:03.831Z,7.54
2022-12-25T00:29:06.657Z,7.56
2022-12-25T00:32:09.485Z,7.59
2022-12-25T00:35:12.351Z,7.60
2022-12-25T00:38:15.225Z,7.61
2022-12-25T00:41:43.635Z,7.62
2022-12-25T00:44:48.091Z,7.65
2022-12-25T00:47:50.829Z,7.66
2022-12-25T00:50:58.472Z,7.67
2022-12-25T00:54:01.730Z,7.74
2022-12-25T00:57:04.566Z,7.71
2022-12-25T01:00:08.008Z,8.02
2022-12-25T01:03:10.957Z,8.42
2022-12-25T01:06:13.937Z,8.35
2022-12-25T01:09:35.374Z,8.13
2022-12-25T01:12:40.753Z,8.20
2022-12-25T01:15:43.649Z,8.13
2022-12-25T01:18:46.915Z,8.02
2022-12-25T01:21:49.736Z,7.76
2022-12-25T01:24:52.527Z,7.74
2022-12-25T01:27:55.492Z,7.79
2022-12-25T01:30:58.375Z,7.71
2022-12-25T01:34:01.199Z,7.68
2022-12-25T01:37:04.258Z,7.64
2022-12-25T01:40:07.907Z,7.64
2022-12-25T01:43:20.439Z,7.65
2022-12-25T01:46:23.304Z,7.66
2022-12-25T01:49:26.403Z,7.68
2022-12-25T01:52:31.096Z,7.65
2022-12-25T01:55:35.189Z,7.64
2022-12-25T01:58:38.091Z,7.68
2022-12-25T02:01:42.093Z,7.64
2022-12-25T02:04:54.010Z,7.61
2022-12-25T02:07:59.618Z,7.63
2022-12-25T02:11:02.714Z,7.67
2022-12-25T02:14:06.135Z,7.64
2022-12-25T02:17:21.232Z,7.57
2022-12-25T02:20:47.408Z,7.55
2022-12-25T02:23:56.458Z,7.58
2022-12-25T02:27:14.532Z,7.53
2022-12-25T02:30:17.934Z,7.48
2022-12-25T02:33:50.160Z,7.45
2022-12-25T02:37:02.655Z,7.42
2022-12-25T02:40:30.784Z,7.46
2022-12-25T02:43:59.155Z,7.47
2022-12-25T02:47:23.001Z,7.44
2022-12-25T02:50:44.719Z,7.39
2022-12-25T02:54:10.230Z,7.38
2022-12-25T02:57:36.153Z,7.39
2022-12-25T03:01:02.634Z,7.41
2022-12-25T03:04:29.264Z,7.40
2022-12-25T03:07:33.178Z,7.40
2022-12-25T03:10:59.067Z,7.43
2022-12-25T03:14:26.432Z,7.45
2022-12-25T03:17:32.454Z,7.46
2022-12-25T03:20:54.112Z,7.52
2022-12-25T03:24:19.465Z,7.48
2022-12-25T03:27:21.993Z,7.47
2022-12-25T03:31:00.497Z,7.47
2022-12-25T03:34:38.137Z,7.58
2022-12-25T03:38:24.396Z,7.48
2022-12-25T03:42:01.611Z,7.44
2022-12-25T03:45:40.342Z,7.41
2022-12-25T03:49:08.360Z,7.35
2022-12-25T03:52:34.880Z,7.32
2022-12-25T03:55:59.806Z,7.29
2022-12-25T03:59:24.157Z,7.27
2022-12-25T04:02:46.164Z,7.34
2022-12-25T04:06:21.607Z,7.74
2022-12-25T04:09:43.012Z,7.65
2022-12-25T04:13:04.819Z,7.38
2022-12-25T04:16:26.430Z,7.24
2022-12-25T04:19:48.006Z,7.22
2022-12-25T04:23:08.866Z,7.19
2022-12-25T04:26:30.202Z,7.44
2022-12-25T04:29:51.793Z,7.25
2022-12-25T04:33:19.408Z,7.15
2022-12-25T04:36:22.129Z,7.37
2022-12-25T04:39:25.210Z,7.30
2022-12-25T04:42:27.873Z,7.18
2022-12-25T04:45:30.973Z,7.23
2022-12-25T04:48:35.987Z,7.22
2022-12-25T04:51:39.126Z,7.16
2022-12-25T04:54:41.699Z,7.18
2022-12-25T04:57:45.301Z,7.21
2022-12-25T05:00:47.879Z,7.17
2022-12-25T05:03:51.038Z,7.10
2022-12-25T05:06:54.470Z,7.07
2022-12-25T05:09:58.397Z,7.08
2022-12-25T05:13:00.904Z,7.04
2022-12-25T05:16:15.476Z,7.00
2022-12-25T05:19:18.028Z,6.99
2022-12-25T05:22:21.133Z,6.99
2022-12-25T05:25:23.688Z,6.90
2022-12-25T05:28:26.815Z,6.86
2022-12-25T05:31:29.340Z,6.84
2022-12-25T05:34:32.504Z,6.81
2022-12-25T05:37:36.294Z,6.83
2022-12-25T05:40:40.932Z,6.98
2022-12-25T05:43:43.611Z,6.84
2022-12-25T05:46:46.845Z,6.80
2022-12-25T05:49:49.400Z,6.95
2022-12-25T05:52:52.469Z,6.80
2022-12-25T05:55:54.960Z,6.73
2022-12-25T05:58:58.038Z,6.65
2022-12-25T06:02:00.736Z,6.62
2022-12-25T06:05:04.889Z,6.54
2022-12-25T06:08:07.672Z,6.47
2022-12-25T06:11:12.630Z,6.42
2022-12-25T06:14:17.089Z,6.38
2022-12-25T06:17:20.147Z,6.32
2022-12-25T06:20:22.702Z,6.28
2022-12-25T06:23:25.831Z,6.22
2022-12-25T06:26:28.571Z,6.23
2022-12-25T06:29:31.710Z,6.26
2022-12-25T06:32:34.279Z,6.26
2022-12-25T06:35:39.577Z,6.23
2022-12-25T06:38:42.407Z,6.23
2022-12-25T06:41:45.445Z,6.22
2022-12-25T06:44:48.008Z,6.21
2022-12-25T06:47:51.121Z,6.18
2022-12-25T06:50:53.604Z,6.15
2022-12-25T06:53:58.802Z,6.14
2022-12-25T06:57:01.396Z,6.13
2022-12-25T07:00:05.304Z,6.15
2022-12-25T07:03:07.756Z,6.19
2022-12-25T07:06:10.824Z,6.24
2022-12-25T07:09:13.357Z,6.32
2022-12-25T07:12:19.588Z,6.34
2022-12-25T07:15:22.084Z,6.33
2022-12-25T07:18:25.531Z,6.85
2022-12-25T07:21:28.056Z,7.11
2022-12-25T07:24:31.148Z,6.97
2022-12-25T07:27:33.642Z,7.01
2022-12-25T07:30:37.719Z,6.96
2022-12-25T07:33:40.159Z,6.91
2022-12-25T07:36:43.153Z,6.86
2022-12-25T07:39:45.642Z,6.85
2022-12-25T07:42:48.859Z,6.83
2022-12-25T07:45:56.853Z,6.84
2022-12-25T07:49:00.751Z,7.35
2022-12-25T07:52:03.461Z,7.44
2022-12-25T07:55:06.861Z,7.36
2022-12-25T07:58:09.623Z,7.70
2022-12-25T08:01:19.465Z,7.54
2022-12-25T08:04:22.381Z,7.63
2022-12-25T08:07:25.271Z,7.65
2022-12-25T08:10:28.061Z,7.75
2022-12-25T08:13:32.603Z,7.89
2022-12-25T08:16:35.874Z,8.00
2022-12-25T08:19:38.654Z,8.11
2022-12-25T08:22:41.394Z,8.18
2022-12-25T08:25:44.165Z,8.22
2022-12-25T08:28:47.802Z,8.28
2022-12-25T08:31:50.653Z,8.42
2022-12-25T08:34:53.516Z,8.44
2022-12-25T08:37:56.362Z,8.69
2022-12-25T08:40:59.186Z,9.03
2022-12-25T08:44:03.629Z,8.98
2022-12-25T08:47:06.412Z,9.27
2022-12-25T08:50:09.671Z,9.79
2022-12-25T08:53:14.048Z,10.11
2022-12-25T08:56:18.183Z,10.11
2022-12-25T08:59:21.137Z,10.53
2022-12-25T09:02:24.120Z,11.19
2022-12-25T09:05:27.133Z,11.95
2022-12-25T09:08:30.205Z,12.58
2022-12-25T09:11:33.059Z,13.61
2022-12-25T09:14:36.627Z,14.38
2022-12-25T09:17:39.722Z,14.04
2022-12-25T09:20:42.430Z,13.35
2022-12-25T09:23:45.528Z,12.90
2022-12-25T09:26:48.677Z,12.23
2022-12-25T09:29:51.325Z,12.03
2022-12-25T09:32:54.111Z,11.87
2022-12-25T09:36:08.677Z,11.43
2022-12-25T09:39:11.465Z,11.49
2022-12-25T09:42:19.426Z,11.47
2022-12-25T09:45:38.131Z,12.34
2022-12-25T09:48:50.432Z,13.94
2022-12-25T09:51:59.398Z,15.55
2022-12-25T09:55:08.505Z,17.53
2022-12-25T09:58:13.227Z,18.64
2022-12-25T10:01:22.236Z,17.75
2022-12-25T10:04:41.189Z,17.03
2022-12-25T10:08:09.062Z,17.43
2022-12-25T10:11:18.037Z,17.90
2022-12-25T10:14:38.730Z,19.07
2022-12-25T10:18:00.697Z,19.66
2022-12-25T10:21:11.136Z,21.20
2022-12-25T10:24:31.812Z,23.24
2022-12-25T10:27:42.815Z,23.92
2022-12-25T10:30:46.030Z,24.79
2022-12-25T10:33:50.915Z,24.89
2022-12-25T10:36:54.697Z,24.98
2022-12-25T10:39:57.392Z,25.19
2022-12-25T10:43:08.948Z,25.45
2022-12-25T10:46:14.536Z,25.52
2022-12-25T10:49:20.968Z,26.25
2022-12-25T10:52:26.840Z,27.45
2022-12-25T10:55:30.175Z,28.49
2022-12-25T10:58:33.937Z,28.34
2022-12-25T11:01:37.325Z,28.80
2022-12-25T11:04:40.428Z,29.35
2022-12-25T11:07:54.347Z,30.08
2022-12-25T11:11:08.846Z,31.06
2022-12-25T11:14:20.559Z,31.71
2022-12-25T11:17:25.573Z,32.23
2022-12-25T11:20:30.043Z,32.62
2022-12-25T11:23:33.092Z,32.64
2022-12-25T11:26:50.346Z,32.42
2022-12-25T11:30:04.562Z,31.26
2022-12-25T11:33:12.580Z,29.98
2022-12-25T11:36:27.004Z,28.73
2022-12-25T11:39:31.278Z,27.64
2022-12-25T11:42:33.770Z,26.86
2022-12-25T11:45:40.487Z,25.74
2022-12-25T11:49:08.851Z,24.92
2022-12-25T11:52:14.597Z,24.98
2022-12-25T11:55:19.903Z,25.51
2022-12-25T11:58:39.742Z,26.66
2022-12-25T12:01:42.337Z,27.99
2022-12-25T12:16:31.046Z,30.89
2022-12-25T12:19:34.862Z,30.32
2022-12-25T12:22:37.786Z,29.92
2022-12-25T12:25:42.911Z,29.71
2022-12-25T12:28:47.947Z,29.50
2022-12-25T12:31:52.181Z,29.91
2022-12-25T12:34:56.673Z,29.37
2022-12-25T12:38:12.006Z,28.82
2022-12-25T12:41:16.382Z,26.21
2022-12-25T12:44:25.031Z,23.45
2022-12-25T12:47:37.098Z,21.64
2022-12-25T12:50:41.581Z,20.14
2022-12-25T12:53:44.466Z,19.19
2022-12-25T12:57:02.606Z,18.13
2022-12-25T13:00:10.806Z,17.57
2022-12-25T13:03:44.691Z,17.23
2022-12-25T13:06:57.092Z,16.75
2022-12-25T13:10:13.718Z,16.21
2022-12-25T13:13:28.356Z,15.72
2022-12-25T13:16:38.744Z,15.34
2022-12-25T13:19:43.654Z,15.05
2022-12-25T13:22:52.413Z,14.81
2022-12-25T13:25:58.144Z,14.66
2022-12-25T13:29:03.897Z,14.52
2022-12-25T13:32:30.965Z,14.38
2022-12-25T13:35:33.789Z,14.30
2022-12-25T13:38:36.864Z,14.19
2022-12-25T13:42:02.418Z,14.17
2022-12-25T13:45:18.701Z,14.05
2022-12-25T13:48:23.263Z,13.96
2022-12-25T13:51:26.795Z,13.93
2022-12-25T13:54:29.794Z,13.77
2022-12-25T13:57:37.057Z,13.68
2022-12-25T14:00:52.810Z,13.60
2022-12-25T14:03:56.508Z,13.52
2022-12-25T14:07:08.613Z,13.43
2022-12-25T14:10:13.095Z,13.55
2022-12-25T14:13:18.110Z,13.44
2022-12-25T14:16:22.216Z,13.22
2022-12-25T14:19:30.712Z,13.13
2022-12-25T14:22:35.457Z,12.99
2022-12-25T14:25:45.446Z,13.06
2022-12-25T14:28:54.070Z,12.84
2022-12-25T14:31:58.857Z,12.70
2022-12-25T14:35:03.652Z,12.71
2022-12-25T14:38:06.556Z,12.64
2022-12-25T14:41:33.569Z,12.50
2022-12-25T14:44:41.327Z,12.41
2022-12-25T14:47:59.972Z,12.32
2022-12-25T14:51:15.518Z,12.28
2022-12-25T14:54:22.505Z,12.19
2022-12-25T14:57:34.742Z,12.13
2022-12-25T15:00:39.486Z,12.08
2022-12-25T15:03:42.131Z,12.01
2022-12-25T15:06:55.636Z,11.95
2022-12-25T15:10:27.029Z,11.88
2022-12-25T15:13:21.516Z,11.79
2022-12-25T15:16:40.019Z,11.68
2022-12-25T15:19:43.341Z,11.60
2022-12-25T15:23:17.818Z,11.56
2022-12-25T15:26:13.521Z,11.50
2022-12-25T15:29:16.144Z,11.40
2022-12-25T15:32:20.355Z,11.30
2022-12-25T15:35:22.805Z,11.23
2022-12-25T15:38:25.885Z,11.15
2022-12-25T15:41:50.004Z,11.10
2022-12-25T15:44:53.202Z,11.07
2022-12-25T15:47:56.047Z,11.04
2022-12-25T15:50:59.242Z,11.00
2022-12-25T15:54:01.857Z,10.96
2022-12-25T15:57:07.173Z,10.93
2022-12-25T16:00:17.434Z,10.94
2022-12-25T16:03:21.015Z,10.88
2022-12-25T16:06:23.872Z,10.84
2022-12-25T16:09:27.981Z,10.81
2022-12-25T16:12:30.718Z,10.79
2022-12-25T16:15:34.327Z,10.78
2022-12-25T16:18:41.942Z,10.78
2022-12-25T16:21:50.435Z,10.77
2022-12-25T16:24:53.808Z,10.76
2022-12-25T16:27:57.065Z,10.75
2022-12-25T16:31:00.016Z,10.78
2022-12-25T16:34:05.115Z,10.81
2022-12-25T16:37:08.077Z,10.92
2022-12-25T16:40:11.924Z,10.80
2022-12-25T16:43:20.292Z,10.77
2022-12-25T16:46:27.032Z,10.74
2022-12-25T16:49:30.021Z,10.73
2022-12-25T16:52:36.411Z,10.73
2022-12-25T16:55:40.001Z,10.69
2022-12-25T16:58:47.717Z,10.68
2022-12-25T17:01:50.582Z,10.81
2022-12-25T17:04:54.728Z,10.71
2022-12-25T17:07:59.389Z,10.80
2022-12-25T17:11:04.667Z,10.71
2022-12-25T17:14:07.615Z,10.68
2022-12-25T17:17:11.314Z,10.68
2022-12-25T17:20:20.286Z,10.65
2022-12-25T17:23:23.952Z,10.63
2022-12-25T17:26:27.884Z,10.77
2022-12-25T17:29:32.032Z,10.65
2022-12-25T17:32:34.804Z,10.62
2022-12-25T17:35:38.427Z,10.72
2022-12-25T17:38:42.253Z,10.76
2022-12-25T17:41:46.034Z,10.60
2022-12-25T17:44:48.973Z,10.56
2022-12-25T17:47:55.063Z,10.65
2022-12-25T17:51:02.308Z,10.55
2022-12-25T17:54:06.102Z,10.48
2022-12-25T17:57:09.033Z,10.45
2022-12-25T18:00:13.284Z,10.48
2022-12-25T18:03:16.786Z,10.35
2022-12-25T18:06:25.231Z,10.29
2022-12-25T18:09:28.524Z,10.23
2022-12-25T18:12:32.151Z,10.33
2022-12-25T18:15:38.555Z,10.20
2022-12-25T18:18:46.524Z,10.15
2022-12-25T18:21:54.645Z,10.13
2022-12-25T18:24:58.058Z,10.36
2022-12-25T18:28:02.735Z,10.18
2022-12-25T18:31:24.744Z,10.13
2022-12-25T18:34:28.061Z,10.11
2022-12-25T18:37:34.457Z,10.07
2022-12-25T18:40:48.349Z,10.05
2022-12-25T18:43:55.562Z,10.12
2022-12-25T18:46:59.254Z,10.08
2022-12-25T18:50:03.170Z,10.08
2022-12-25T18:53:07.505Z,10.07
2022-12-25T18:56:15.250Z,10.09
2022-12-25T18:59:18.852Z,10.13
2022-12-25T19:02:22.360Z,10.13
2022-12-25T19:05:26.344Z,10.11
2022-12-25T19:08:29.695Z,10.09
2022-12-25T19:11:46.617Z,10.19
2022-12-25T19:14:50.844Z,10.18
2022-12-25T19:17:56.960Z,10.24
2022-12-25T19:21:05.465Z,10.19
2022-12-25T19:24:08.819Z,10.23
2022-12-25T19:27:12.252Z,10.22
2022-12-25T19:30:15.755Z,10.22
2022-12-25T19:33:19.081Z,10.24
2022-12-25T19:36:22.288Z,10.26
2022-12-25T19:39:25.706Z,10.26
2022-12-25T19:42:28.946Z,10.28
2022-12-25T19:45:32.756Z,10.35
2022-12-25T19:48:36.306Z,10.55
2022-12-25T19:51:43.027Z,10.51
2022-12-25T19:54:46.309Z,10.40
2022-12-25T19:57:50.140Z,10.35
2022-12-25T20:01:01.659Z,10.39
2022-12-25T20:04:08.710Z,10.49
2022-12-25T20:07:11.700Z,10.44
2022-12-25T20:10:15.210Z,10.37
2022-12-25T20:13:18.602Z,10.30
2022-12-25T20:16:22.654Z,10.26
2022-12-25T20:19:25.453Z,10.25
2022-12-25T20:22:28.666Z,10.23
2022-12-25T20:25:31.373Z,10.55
2022-12-25T20:28:36.238Z,10.39
2022-12-25T20:31:38.792Z,10.54
2022-12-25T20:34:42.051Z,10.47
2022-12-25T20:37:45.039Z,10.30
2022-12-25T20:41:25.127Z,10.11
2022-12-25T20:44:10.960Z,9.98
2022-12-25T20:47:14.387Z,9.93
2022-12-25T20:50:17.134Z,9.93
2022-12-25T20:53:20.468Z,9.96
2022-12-25T20:56:24.997Z,9.93
2022-12-25T20:59:35.243Z,9.94
2022-12-25T21:02:40.088Z,10.02
2022-12-25T21:05:51.523Z,10.27
2022-12-25T21:08:54.778Z,10.18
2022-12-25T21:11:58.091Z,10.15
2022-12-25T21:15:00.825Z,10.13
2022-12-25T21:18:03.853Z,9.98
2022-12-25T21:21:07.792Z,9.93
2022-12-25T21:24:11.147Z,9.93
2022-12-25T21:27:14.033Z,9.94
2022-12-25T21:30:17.360Z,9.97
2022-12-25T21:33:38.801Z,9.97
2022-12-25T21:36:41.973Z,9.99
2022-12-25T21:39:44.523Z,10.00
2022-12-25T21:42:47.638Z,10.00
2022-12-25T21:45:50.137Z,10.01
2022-12-25T21:48:54.246Z,10.03
2022-12-25T21:52:09.361Z,10.04
2022-12-25T21:55:12.548Z,10.04
2022-12-25T21:58:15.081Z,10.05
2022-12-25T22:01:18.723Z,10.03
2022-12-25T22:04:23.293Z,10.04
2022-12-25T22:07:26.131Z,10.03
2022-12-25T22:10:31.162Z,10.05
2022-12-25T22:13:52.746Z,10.05
2022-12-25T22:17:14.153Z,10.05
2022-12-25T22:20:28.263Z,10.04
2022-12-25T22:23:31.211Z,10.05
2022-12-25T22:26:35.000Z,10.05
2022-12-25T22:29:37.945Z,10.05
2022-12-25T22:32:41.434Z,10.07
2022-12-25T22:35:44.336Z,10.06
2022-12-25T22:38:47.214Z,10.13
2022-12-25T22:41:50.094Z,10.13
2022-12-25T22:44:52.968Z,10.07
2022-12-25T22:47:55.839Z,10.06
2022-12-25T22:51:02.610Z,10.05
2022-12-25T22:54:08.727Z,10.06
2022-12-25T22:57:11.700Z,10.07
2022-12-25T23:00:14.814Z,10.07
2022-12-25T23:03:17.865Z,10.05
2022-12-25T23:06:21.134Z,10.06
2022-12-25T23:09:27.895Z,10.05
2022-12-25T23:12:50.546Z,10.04
2022-12-25T23:15:53.440Z,10.02
2022-12-25T23:19:15.295Z,10.00
2022-12-25T23:22:36.928Z,9.99
2022-12-25T23:25:58.990Z,9.99
2022-12-25T23:29:20.701Z,9.98
2022-12-25T23:32:27.952Z,9.98
2022-12-25T23:35:32.777Z,9.95
2022-12-25T23:38:36.862Z,9.94
2022-12-25T23:41:41.440Z,9.93
2022-12-25T23:44:45.381Z,9.91
2022-12-25T23:47:48.269Z,9.88
2022-12-25T23:50:51.315Z,9.83
2022-12-25T23:53:54.250Z,9.81
2022-12-25T23:56:58.535Z,9.78
